TimeCST,TemperatureF,Dew PointF,Humidity,Sea Level PressureIn,VisibilityMPH,Wind Direction,Wind SpeedMPH,Gust SpeedMPH,PrecipitationIn,Events,Conditions,WindDirDegrees,DateUTC
12:15 AM,26.6,20.8,79,30.12,10.0,NW,6.9,-,N/A,,Overcast,310,2012-12-27 06:15:00
12:35 AM,26.6,20.8,79,30.13,10.0,NW,6.9,-,N/A,,Overcast,310,2012-12-27 06:35:00
12:55 AM,26.6,20.3,77,30.13,10.0,NW,5.8,-,N/A,,Overcast,310,2012-12-27 06:55:00
1:15 AM,26.6,21.0,79,30.15,10.0,WNW,6.9,-,N/A,,Overcast,300,2012-12-27 07:15:00
1:35 AM,26.4,20.8,79,30.15,10.0,NW,8.1,-,N/A,,Overcast,320,2012-12-27 07:35:00
1:55 AM,26.1,20.3,79,30.15,10.0,NNW,5.8,-,N/A,,Overcast,330,2012-12-27 07:55:00
2:15 AM,25.7,19.9,79,30.16,10.0,NW,8.1,-,N/A,,Overcast,320,2012-12-27 08:15:00
2:35 AM,25.7,19.9,79,30.16,10.0,NW,8.1,-,N/A,,Overcast,320,2012-12-27 08:35:00
2:55 AM,25.5,19.9,79,30.16,10.0,NW,4.6,-,N/A,,Overcast,310,2012-12-27 08:55:00
3:15 AM,25.2,19.4,79,30.16,10.0,NW,6.9,-,N/A,,Overcast,310,2012-12-27 09:15:00
3:35 AM,24.8,19.4,80,30.15,10.0,NNW,6.9,-,N/A,,Overcast,330,2012-12-27 09:35:00
3:55 AM,24.8,19.6,81,30.15,10.0,NNW,5.8,-,N/A,,Overcast,340,2012-12-27 09:55:00
4:15 AM,24.8,19.4,80,30.15,10.0,NW,5.8,-,N/A,,Overcast,320,2012-12-27 10:15:00
4:35 AM,24.8,19.4,80,30.16,10.0,NNW,5.8,-,N/A,,Overcast,330,2012-12-27 10:35:00
4:55 AM,24.8,19.6,81,30.16,10.0,NW,6.9,-,N/A,,Overcast,320,2012-12-27 10:55:00
5:15 AM,24.6,19.8,82,30.16,10.0,NNW,4.6,-,N/A,,Overcast,330,2012-12-27 11:15:00
5:35 AM,24.4,19.6,82,30.16,10.0,NNW,3.5,-,N/A,,Overcast,330,2012-12-27 11:35:00
5:55 AM,24.6,19.8,82,30.18,10.0,WNW,4.6,-,N/A,,Overcast,290,2012-12-27 11:55:00
6:15 AM,24.6,19.4,81,30.18,10.0,WNW,3.5,-,N/A,,Overcast,300,2012-12-27 12:15:00
6:35 AM,24.4,19.4,81,30.18,10.0,WNW,4.6,-,N/A,,Overcast,300,2012-12-27 12:35:00
6:55 AM,24.3,19.4,82,30.19,10.0,NW,4.6,-,N/A,,Overcast,310,2012-12-27 12:55:00
7:15 AM,24.3,19.4,82,30.18,10.0,NNW,4.6,-,N/A,,Overcast,340,2012-12-27 13:15:00
7:35 AM,23.9,19.4,83,30.17,10.0,NNW,4.6,-,N/A,,Overcast,340,2012-12-27 13:35:00
7:55 AM,24.1,19.4,82,30.18,10.0,Calm,Calm,-,N/A,,Overcast,0,2012-12-27 13:55:00
8:15 AM,24.3,19.4,82,30.18,10.0,Calm,Calm,-,N/A,,Overcast,0,2012-12-27 14:15:00
8:35 AM,24.4,19.6,82,30.19,10.0,NNW,3.5,-,N/A,,Overcast,330,2012-12-27 14:35:00
8:55 AM,24.8,19.8,81,30.18,10.0,NNW,3.5,-,N/A,,Overcast,340,2012-12-27 14:55:00
9:15 AM,25.2,20.1,81,30.19,10.0,Calm,Calm,-,N/A,,Overcast,0,2012-12-27 15:15:00
9:35 AM,25.5,20.3,81,30.18,10.0,Calm,Calm,-,N/A,,Overcast,0,2012-12-27 15:35:00
9:55 AM,25.7,20.5,81,30.19,10.0,Calm,Calm,-,N/A,,Overcast,0,2012-12-27 15:55:00
10:15 AM,26.6,21.2,80,30.19,10.0,Calm,Calm,-,N/A,,Overcast,0,2012-12-27 16:15:00
10:35 AM,26.6,21.0,79,30.19,10.0,Calm,Calm,-,N/A,,Overcast,0,2012-12-27 16:35:00
10:55 AM,26.6,20.7,78,30.20,10.0,Calm,Calm,-,N/A,,Overcast,0,2012-12-27 16:55:00
11:15 AM,27.1,21.2,78,30.20,10.0,West,3.5,-,N/A,,Overcast,270,2012-12-27 17:15:00
11:35 AM,27.5,21.7,79,30.19,10.0,NW,3.5,-,N/A,,Overcast,310,2012-12-27 17:35:00
11:55 AM,27.5,21.4,78,30.17,10.0,Calm,Calm,-,N/A,,Overcast,0,2012-12-27 17:55:00
12:15 PM,27.5,21.4,78,30.16,10.0,Calm,Calm,-,N/A,,Overcast,0,2012-12-27 18:15:00
12:35 PM,27.9,21.7,78,30.14,10.0,Calm,Calm,-,N/A,,Overcast,0,2012-12-27 18:35:00
12:55 PM,28.4,21.7,76,30.13,10.0,Calm,Calm,-,N/A,,Overcast,0,2012-12-27 18:55:00
1:15 PM,29.1,22.1,75,30.14,10.0,Calm,Calm,-,N/A,,Overcast,0,2012-12-27 19:15:00
1:35 PM,29.1,22.1,75,30.15,10.0,Calm,Calm,-,N/A,,Unknown,0,2012-12-27 19:35:00
1:55 PM,29.3,22.5,76,30.14,10.0,Calm,Calm,-,N/A,,Overcast,0,2012-12-27 19:55:00
2:15 PM,29.1,22.5,76,30.13,10.0,Calm,Calm,-,N/A,,Overcast,0,2012-12-27 20:15:00
2:35 PM,29.3,22.8,77,30.13,10.0,Calm,Calm,-,N/A,,Overcast,0,2012-12-27 20:35:00
2:55 PM,29.3,23.0,77,30.14,10.0,Calm,Calm,-,N/A,,Overcast,0,2012-12-27 20:55:00
3:15 PM,29.3,23.0,77,30.14,10.0,Calm,Calm,-,N/A,,Overcast,0,2012-12-27 21:15:00
3:35 PM,29.3,23.0,77,30.14,10.0,Calm,Calm,-,N/A,,Overcast,0,2012-12-27 21:35:00
3:55 PM,29.7,23.4,77,30.14,10.0,Calm,Calm,-,N/A,,Overcast,0,2012-12-27 21:55:00
4:15 PM,30.0,23.9,78,30.12,10.0,NE,5.8,-,N/A,,Overcast,40,2012-12-27 22:15:00
4:35 PM,29.7,23.9,79,30.12,10.0,NE,3.5,-,N/A,,Overcast,50,2012-12-27 22:35:00
4:55 PM,28.8,23.9,82,30.12,10.0,ENE,5.8,-,N/A,,Mostly Cloudy,60,2012-12-27 22:55:00
5:15 PM,28.4,24.1,84,30.11,10.0,ENE,4.6,-,N/A,,Overcast,60,2012-12-27 23:15:00
5:35 PM,28.0,23.9,84,30.11,10.0,ENE,3.5,-,N/A,,Overcast,60,2012-12-27 23:35:00
5:55 PM,28.0,24.1,85,30.11,10.0,ENE,3.5,-,N/A,,Overcast,60,2012-12-27 23:55:00
6:15 PM,28.4,24.8,86,30.12,10.0,Calm,Calm,-,N/A,,Overcast,0,2012-12-28 00:15:00
6:35 PM,28.4,25.5,89,30.13,10.0,Calm,Calm,-,N/A,,Overcast,0,2012-12-28 00:35:00
6:55 PM,28.4,24.8,86,30.13,10.0,Calm,Calm,-,N/A,,Overcast,0,2012-12-28 00:55:00
7:15 PM,27.5,25.3,92,30.13,10.0,Calm,Calm,-,N/A,,Overcast,0,2012-12-28 01:15:00
7:35 PM,28.9,25.7,88,30.13,10.0,Calm,Calm,-,N/A,,Overcast,0,2012-12-28 01:35:00
7:55 PM,28.9,25.5,87,30.13,10.0,Calm,Calm,-,N/A,,Overcast,0,2012-12-28 01:55:00
8:15 PM,29.1,25.7,87,30.13,10.0,Calm,Calm,-,N/A,,Overcast,0,2012-12-28 02:15:00
8:35 PM,28.9,26.2,90,30.13,10.0,ENE,3.5,-,N/A,,Overcast,60,2012-12-28 02:35:00
8:55 PM,29.1,26.4,90,30.13,10.0,ENE,4.6,-,N/A,,Overcast,60,2012-12-28 02:55:00
9:15 PM,29.3,26.2,88,30.12,10.0,East,3.5,-,N/A,,Overcast,80,2012-12-28 03:15:00
9:35 PM,29.3,26.1,88,30.12,10.0,East,4.6,-,N/A,,Overcast,90,2012-12-28 03:35:00
9:55 PM,29.3,25.7,86,30.11,10.0,East,4.6,-,N/A,,Overcast,100,2012-12-28 03:55:00
10:15 PM,29.3,25.9,87,30.12,10.0,ESE,3.5,-,N/A,,Overcast,110,2012-12-28 04:15:00
10:35 PM,29.3,25.7,86,30.11,10.0,SE,4.6,-,N/A,,Overcast,130,2012-12-28 04:35:00
10:55 PM,29.3,25.7,86,30.11,10.0,ESE,5.8,-,N/A,,Overcast,120,2012-12-28 04:55:00
11:15 PM,30.2,24.8,80,30.11,10.0,SE,8.1,-,N/A,,Overcast,130,2012-12-28 05:15:00
11:35 PM,29.3,23.5,79,30.11,10.0,SE,8.1,-,N/A,,Overcast,130,2012-12-28 05:35:00
11:55 PM,29.1,23.5,80,30.11,10.0,SSE,6.9,-,N/A,,Overcast,150,2012-12-28 05:55:00